Time;durP1;ratioP1;P1;durP2;ratioP2;P2;SDS_P1;SDS_P2;PMS_P1;PMS_P2;Temp;Humidity;BMP_temperature;BMP_pressure;BME280_temperature;BME280_humidity;BME280_pressure;Samples;Min_cycle;Max_cycle;Signal;HPM_P1;HPM_P2
2023/09/18 00:01:01;;;;;;;;;;;17.70;99.90;;;;;;5078767;28;20108;-64
2023/09/18 00:03:26;;;;;;;;;;;17.80;99.90;;;;;;5062001;28;19924;-64
2023/09/18 00:05:52;;;;;;;;;;;17.30;99.90;;;;;;5082945;28;20023;-64
2023/09/18 00:08:19;;;;;;;;;;;17.80;99.90;;;;;;5082218;28;20117;-64
2023/09/18 00:10:54;;;;;;;;;;;17.70;99.90;;;;;;5082579;28;19923;-64
2023/09/18 00:13:20;;;;;;;;;;;17.20;99.90;;;;;;5082229;28;20158;-64
2023/09/18 00:15:48;;;;;;;;;;;17.80;99.90;;;;;;5083448;28;19935;-64
2023/09/18 00:18:14;;;;;;;;;;;17.60;99.90;;;;;;5082285;28;20424;-64
2023/09/18 00:20:40;;;;;;;;;;;17.30;99.90;;;;;;5083957;28;19924;-64
2023/09/18 00:23:06;;;;;;;;;;;17.30;99.90;;;;;;5084313;28;20015;-64
2023/09/18 00:25:31;;;;;;;;;;;17.70;99.90;;;;;;5083988;28;19924;-64
2023/09/18 00:27:57;;;;;;;;;;;17.20;99.90;;;;;;5082167;28;19924;-64
2023/09/18 00:30:22;;;;;;;;;;;17.80;99.90;;;;;;5083588;28;19973;-64
2023/09/18 00:32:49;;;;;;;;;;;17.60;99.90;;;;;;5081833;28;19974;-64
2023/09/18 00:35:15;;;;;;;;;;;17.40;99.90;;;;;;5082548;28;20428;-65
2023/09/18 00:37:41;;;;;;;;;;;17.40;99.90;;;;;;5065416;28;19920;-64
2023/09/18 00:40:07;;;;;;;;;;;17.80;99.90;;;;;;5082877;28;19947;-64
2023/09/18 00:42:32;;;;;;;;;;;17.50;99.90;;;;;;5065360;28;19924;-64
2023/09/18 00:44:58;;;;;;;;;;;17.60;99.90;;;;;;5082159;28;19920;-64
2023/09/18 00:47:24;;;;;;;;;;;18.30;99.90;;;;;;5082137;28;19935;-64
2023/09/18 00:49:51;;;;;;;;;;;17.80;99.90;;;;;;5082433;28;19935;-64
2023/09/18 00:52:17;;;;;;;;;;;18.60;99.90;;;;;;5065769;28;19995;-64
2023/09/18 00:54:43;;;;;;;;;;;18.00;99.90;;;;;;5082285;28;20170;-64
2023/09/18 00:57:08;;;;;;;;;;;18.50;99.90;;;;;;5083953;28;19981;-64
2023/09/18 00:59:34;;;;;;;;;;;18.70;99.90;;;;;;5064892;28;19928;-64
2023/09/18 01:02:00;;;;;;;;;;;18.90;99.90;;;;;;5065892;28;19967;-64
2023/09/18 01:04:26;;;;;;;;;;;18.80;99.90;;;;;;5082024;28;20341;-64
2023/09/18 01:06:53;;;;;;;;;;;18.40;99.90;;;;;;5082146;28;19924;-64
2023/09/18 01:09:19;;;;;;;;;;;18.50;99.90;;;;;;5082785;28;20306;-64
2023/09/18 01:11:48;;;;;;;;;;;18.60;99.90;;;;;;5082330;28;20236;-64
2023/09/18 01:14:22;;;;;;;;;;;18.90;99.90;;;;;;5064767;28;19939;-65
2023/09/18 01:16:50;;;;;;;;;;;18.60;99.90;;;;;;5080916;28;19924;-64
2023/09/18 01:19:16;;;;;;;;;;;18.50;99.90;;;;;;5064717;28;20029;-64
2023/09/18 01:21:42;;;;;;;;;;;18.50;99.90;;;;;;5065288;28;19959;-65
2023/09/18 01:24:07;;;;;;;;;;;19.00;99.90;;;;;;5082340;28;20266;-64
2023/09/18 01:26:33;;;;;;;;;;;18.60;99.90;;;;;;5080931;28;20347;-64
2023/09/18 01:28:58;;;;;;;;;;;19.00;99.90;;;;;;5081588;28;19930;-65
2023/09/18 01:31:26;;;;;;;;;;;18.60;99.90;;;;;;5081257;28;19950;-65
2023/09/18 01:33:52;;;;;;;;;;;18.90;99.90;;;;;;5081304;28;20345;-65
2023/09/18 01:36:18;;;;;;;;;;;18.70;99.90;;;;;;5081625;28;19932;-64
2023/09/18 01:38:44;;;;;;;;;;;18.60;99.90;;;;;;5064966;28;20375;-64
2023/09/18 01:41:10;;;;;;;;;;;19.20;99.90;;;;;;5082179;28;20020;-64
2023/09/18 01:43:35;;;;;;;;;;;19.10;99.90;;;;;;5081506;28;19924;-65
2023/09/18 01:46:01;;;;;;;;;;;19.00;99.90;;;;;;5080962;28;19932;-65
2023/09/18 01:48:27;;;;;;;;;;;19.00;99.90;;;;;;5081369;28;19938;-65
2023/09/18 01:50:52;;;;;;;;;;;18.90;99.90;;;;;;5064823;28;19926;-65
2023/09/18 01:53:18;;;;;;;;;;;18.40;99.90;;;;;;5064926;28;20409;-65
2023/09/18 01:55:44;;;;;;;;;;;18.50;99.90;;;;;;5081180;28;20001;-64
2023/09/18 01:58:09;;;;;;;;;;;18.60;99.90;;;;;;5080955;28;19928;-65
2023/09/18 02:00:35;;;;;;;;;;;18.70;99.90;;;;;;5080471;28;20389;-64
2023/09/18 02:03:00;;;;;;;;;;;19.10;99.90;;;;;;5047489;28;19924;-65
2023/09/18 02:05:26;;;;;;;;;;;18.80;99.90;;;;;;5080827;28;20034;-65
2023/09/18 02:07:51;;;;;;;;;;;19.00;99.90;;;;;;5047838;28;20219;-65
2023/09/18 02:10:17;;;;;;;;;;;18.60;99.90;;;;;;5080162;28;19920;-65
2023/09/18 02:12:43;;;;;;;;;;;19.10;99.90;;;;;;5081060;28;19927;-65
2023/09/18 02:15:10;;;;;;;;;;;19.00;99.90;;;;;;5082099;28;19920;-65
2023/09/18 02:17:36;;;;;;;;;;;18.70;99.90;;;;;;5064130;28;20223;-64
2023/09/18 02:20:05;;;;;;;;;;;18.90;99.90;;;;;;5080749;28;19920;-64
2023/09/18 02:22:31;;;;;;;;;;;18.70;99.90;;;;;;5081582;28;20250;-64
2023/09/18 02:24:58;;;;;;;;;;;18.80;99.90;;;;;;5080392;28;19920;-64
2023/09/18 02:27:24;;;;;;;;;;;18.90;99.90;;;;;;5080204;28;19954;-64
2023/09/18 02:29:50;;;;;;;;;;;18.60;99.90;;;;;;5079684;28;20370;-64
2023/09/18 02:32:16;;;;;;;;;;;18.80;99.90;;;;;;5081457;28;19925;-64
2023/09/18 02:34:41;;;;;;;;;;;18.60;99.90;;;;;;5080542;28;19935;-64
2023/09/18 02:37:07;;;;;;;;;;;18.90;99.90;;;;;;5081006;28;20274;-65
2023/09/18 02:39:32;;;;;;;;;;;18.70;99.90;;;;;;5080105;28;19927;-64
2023/09/18 02:41:58;;;;;;;;;;;18.60;99.90;;;;;;5063252;28;20364;-65
2023/09/18 02:44:23;;;;;;;;;;;18.70;99.90;;;;;;5080177;28;20001;-64
2023/09/18 02:46:49;;;;;;;;;;;18.70;99.90;;;;;;5079716;28;19928;-64
2023/09/18 02:49:15;;;;;;;;;;;19.10;99.90;;;;;;5080401;28;20085;-64
2023/09/18 02:51:40;;;;;;;;;;;18.80;99.90;;;;;;5081746;28;20050;-64
2023/09/18 02:54:06;;;;;;;;;;;19.00;99.90;;;;;;5063431;28;19924;-64
2023/09/18 02:56:31;;;;;;;;;;;18.90;99.90;;;;;;5079418;28;20040;-64
2023/09/18 02:58:57;;;;;;;;;;;18.80;99.90;;;;;;5079768;28;20286;-64
2023/09/18 03:01:22;;;;;;;;;;;18.90;99.90;;;;;;5062814;28;20175;-64
2023/09/18 03:03:48;;;;;;;;;;;18.80;99.90;;;;;;5080016;28;19924;-64
2023/09/18 03:06:13;;;;;;;;;;;18.80;99.90;;;;;;5081270;28;20222;-64
2023/09/18 03:08:39;;;;;;;;;;;18.80;99.90;;;;;;5063389;28;19935;-64
2023/09/18 03:11:12;;;;;;;;;;;18.80;99.90;;;;;;5079641;28;19927;-64
2023/09/18 03:13:42;;;;;;;;;;;19.10;99.90;;;;;;5079705;28;20310;-64
2023/09/18 03:16:09;;;;;;;;;;;18.80;99.90;;;;;;5079718;28;19924;-64
2023/09/18 03:18:35;;;;;;;;;;;18.90;99.90;;;;;;5079513;28;19930;-63
2023/09/18 03:21:01;;;;;;;;;;;19.10;99.90;;;;;;5080718;28;20141;-64
2023/09/18 03:23:26;;;;;;;;;;;18.80;99.90;;;;;;5080373;28;19931;-65
2023/09/18 03:25:52;;;;;;;;;;;18.90;99.90;;;;;;5079572;28;20313;-64
2023/09/18 03:28:17;;;;;;;;;;;18.90;99.90;;;;;;5079299;28;19920;-64
2023/09/18 03:30:43;;;;;;;;;;;18.80;99.90;;;;;;5063343;28;19955;-64
2023/09/18 03:33:08;;;;;;;;;;;18.70;99.90;;;;;;5046048;28;19943;-64
2023/09/18 03:35:44;;;;;;;;;;;19.00;99.90;;;;;;5063158;28;19930;-64
2023/09/18 03:38:10;;;;;;;;;;;18.90;99.90;;;;;;5079248;28;19927;-64
2023/09/18 03:40:35;;;;;;;;;;;18.70;99.90;;;;;;5081667;28;19923;-64
2023/09/18 03:43:01;;;;;;;;;;;18.70;99.90;;;;;;5066977;28;19920;-64
2023/09/18 03:45:26;;;;;;;;;;;18.60;99.90;;;;;;5066815;28;20394;-64
2023/09/18 03:47:52;;;;;;;;;;;19.00;99.90;;;;;;5067599;28;19977;-64
2023/09/18 03:50:18;;;;;;;;;;;18.90;99.90;;;;;;5083562;28;20024;-66
2023/09/18 03:52:43;;;;;;;;;;;18.90;99.90;;;;;;5083011;28;19947;-63
2023/09/18 03:55:09;;;;;;;;;;;19.00;99.90;;;;;;5066244;28;19920;-64
2023/09/18 03:57:36;;;;;;;;;;;18.70;99.90;;;;;;5084487;28;20031;-64
2023/09/18 04:00:03;;;;;;;;;;;18.70;99.90;;;;;;5083598;28;20356;-65
2023/09/18 04:02:30;;;;;;;;;;;18.80;99.90;;;;;;5084645;28;19920;-65
2023/09/18 04:04:55;;;;;;;;;;;18.70;99.90;;;;;;5083144;28;19947;-65
2023/09/18 04:07:21;;;;;;;;;;;18.60;99.90;;;;;;5082901;28;19947;-65
2023/09/18 04:09:46;;;;;;;;;;;18.80;99.90;;;;;;5065949;28;20269;-65
2023/09/18 04:12:12;;;;;;;;;;;18.50;99.90;;;;;;5082128;28;20010;-64
2023/09/18 04:14:38;;;;;;;;;;;18.60;99.90;;;;;;5082770;28;20028;-65
2023/09/18 04:17:03;;;;;;;;;;;18.60;99.90;;;;;;5082302;28;19928;-65
2023/09/18 04:19:29;;;;;;;;;;;18.60;99.90;;;;;;5066008;28;19923;-66
2023/09/18 04:21:55;;;;;;;;;;;18.50;99.90;;;;;;5083591;28;19924;-66
2023/09/18 04:24:21;;;;;;;;;;;18.40;99.90;;;;;;5083371;28;19944;-65
2023/09/18 04:26:46;;;;;;;;;;;18.80;99.90;;;;;;5064872;28;19931;-64
2023/09/18 04:29:12;;;;;;;;;;;18.80;99.90;;;;;;5082614;28;19924;-65
2023/09/18 04:31:38;;;;;;;;;;;18.40;99.90;;;;;;5082324;28;20010;-65
2023/09/18 04:34:03;;;;;;;;;;;18.40;99.90;;;;;;5082066;28;19939;-64
2023/09/18 04:36:29;;;;;;;;;;;18.60;99.90;;;;;;5064880;28;19935;-65
2023/09/18 04:38:55;;;;;;;;;;;18.50;99.90;;;;;;5064416;28;19927;-64
2023/09/18 04:41:20;;;;;;;;;;;18.70;99.90;;;;;;5080965;28;19993;-65
2023/09/18 04:43:46;;;;;;;;;;;18.80;99.90;;;;;;5082986;28;19999;-65
2023/09/18 04:46:12;;;;;;;;;;;18.60;99.90;;;;;;5081510;28;19930;-65
2023/09/18 04:48:38;;;;;;;;;;;18.50;99.90;;;;;;5081812;28;20023;-64
2023/09/18 04:51:03;;;;;;;;;;;18.50;99.90;;;;;;5080577;28;20587;-65
2023/09/18 04:53:30;;;;;;;;;;;18.90;99.90;;;;;;5081635;28;20146;-65
2023/09/18 04:55:55;;;;;;;;;;;18.80;99.90;;;;;;5081838;28;19927;-64
2023/09/18 04:58:21;;;;;;;;;;;18.60;99.90;;;;;;5081604;28;20219;-64
2023/09/18 05:00:53;;;;;;;;;;;18.50;99.90;;;;;;5065140;28;20337;-64
2023/09/18 05:03:18;;;;;;;;;;;18.60;99.90;;;;;;5082375;28;20013;-64
2023/09/18 05:05:44;;;;;;;;;;;18.90;99.90;;;;;;5081627;28;19993;-65
2023/09/18 05:08:09;;;;;;;;;;;18.50;99.90;;;;;;5081759;28;19920;-65
2023/09/18 05:10:35;;;;;;;;;;;18.80;99.90;;;;;;5082655;28;19927;-65
2023/09/18 05:13:01;;;;;;;;;;;18.80;99.90;;;;;;5081999;28;19920;-64
2023/09/18 05:15:29;;;;;;;;;;;18.60;99.90;;;;;;5081320;28;19927;-66
2023/09/18 05:17:57;;;;;;;;;;;18.50;99.90;;;;;;5082879;28;20025;-65
2023/09/18 05:20:24;;;;;;;;;;;18.60;99.90;;;;;;5081359;28;19924;-65
2023/09/18 05:22:50;;;;;;;;;;;18.80;99.90;;;;;;5081276;28;19924;-64
2023/09/18 05:25:16;;;;;;;;;;;18.50;99.90;;;;;;5081536;28;20066;-65
2023/09/18 05:27:44;;;;;;;;;;;18.70;99.90;;;;;;5081477;28;19950;-65
2023/09/18 05:30:12;;;;;;;;;;;18.50;99.90;;;;;;5081911;28;19920;-64
2023/09/18 05:32:37;;;;;;;;;;;18.60;99.90;;;;;;5081507;28;19931;-64
2023/09/18 05:35:06;;;;;;;;;;;18.60;99.90;;;;;;5081623;28;19928;-64
2023/09/18 05:37:32;;;;;;;;;;;18.70;99.90;;;;;;5081436;28;20352;-64
2023/09/18 05:39:57;;;;;;;;;;;18.70;99.90;;;;;;5080683;28;20015;-65
2023/09/18 05:42:23;;;;;;;;;;;18.90;99.90;;;;;;5064122;28;20074;-64
2023/09/18 05:44:48;;;;;;;;;;;18.80;99.90;;;;;;5064625;28;19951;-64
2023/09/18 05:47:14;;;;;;;;;;;18.80;99.90;;;;;;5082057;28;20227;-65
2023/09/18 05:49:39;;;;;;;;;;;18.70;99.90;;;;;;5064718;28;20382;-66
2023/09/18 05:52:05;;;;;;;;;;;18.80;99.90;;;;;;5081102;28;20019;-64
2023/09/18 05:54:30;;;;;;;;;;;18.90;99.90;;;;;;5081103;28;19931;-64
2023/09/18 05:56:56;;;;;;;;;;;18.70;99.90;;;;;;5082183;28;19920;-65
2023/09/18 05:59:22;;;;;;;;;;;18.70;99.90;;;;;;5082273;28;19924;-65
2023/09/18 06:01:49;;;;;;;;;;;18.60;99.90;;;;;;5081116;28;20362;-65
2023/09/18 06:04:14;;;;;;;;;;;18.70;99.90;;;;;;5080424;28;19927;-65
2023/09/18 06:06:40;;;;;;;;;;;18.80;99.90;;;;;;5080470;28;19924;-65
2023/09/18 06:09:06;;;;;;;;;;;18.90;99.90;;;;;;5080559;28;19951;-65
2023/09/18 06:11:32;;;;;;;;;;;18.90;99.90;;;;;;5079992;28;20519;-65
2023/09/18 06:13:57;;;;;;;;;;;18.90;99.90;;;;;;5080407;28;19920;-65
2023/09/18 06:16:23;;;;;;;;;;;19.20;99.90;;;;;;5062967;28;19932;-65
2023/09/18 06:18:48;;;;;;;;;;;19.20;99.90;;;;;;5080150;28;19924;-65
2023/09/18 06:21:14;;;;;;;;;;;19.10;99.90;;;;;;5063232;28;19990;-65
2023/09/18 06:23:39;;;;;;;;;;;19.20;99.90;;;;;;5079946;28;19954;-65
2023/09/18 06:26:05;;;;;;;;;;;19.10;99.90;;;;;;5079883;28;19928;-64
2023/09/18 06:28:31;;;;;;;;;;;19.10;99.90;;;;;;5079481;28;20102;-65
2023/09/18 06:30:56;;;;;;;;;;;19.20;99.90;;;;;;5080422;28;20552;-65
2023/09/18 06:33:22;;;;;;;;;;;19.20;99.90;;;;;;5081545;28;19921;-65
2023/09/18 06:35:48;;;;;;;;;;;19.20;99.90;;;;;;5079878;28;20533;-65
2023/09/18 06:38:15;;;;;;;;;;;19.40;99.90;;;;;;5080887;28;20386;-65
2023/09/18 06:40:41;;;;;;;;;;;19.50;99.90;;;;;;5079187;28;19920;-67
2023/09/18 06:43:06;;;;;;;;;;;19.30;99.90;;;;;;5082699;28;19960;-66
2023/09/18 06:45:33;;;;;;;;;;;18.90;99.90;;;;;;5065822;28;20011;-65
2023/09/18 06:48:00;;;;;;;;;;;18.90;99.90;;;;;;5081981;28;19923;-65
2023/09/18 06:50:26;;;;;;;;;;;18.20;99.90;;;;;;5081120;28;19973;-65
2023/09/18 06:52:51;;;;;;;;;;;18.70;99.90;;;;;;5081430;28;20006;-65
2023/09/18 06:55:17;;;;;;;;;;;18.30;99.90;;;;;;5081450;28;19947;-65
2023/09/18 06:57:42;;;;;;;;;;;18.10;99.90;;;;;;5083846;28;20203;-66
2023/09/18 07:00:08;;;;;;;;;;;18.80;99.90;;;;;;5082384;28;19924;-66
2023/09/18 07:02:34;;;;;;;;;;;18.20;99.90;;;;;;5082089;28;20283;-66
2023/09/18 07:05:00;;;;;;;;;;;18.80;99.90;;;;;;5064003;28;19939;-65
2023/09/18 07:07:25;;;;;;;;;;;18.40;99.90;;;;;;5063671;28;19924;-65
2023/09/18 07:09:51;;;;;;;;;;;18.30;99.90;;;;;;5082048;28;19920;-65
2023/09/18 07:12:20;;;;;;;;;;;18.20;99.90;;;;;;5080541;28;19970;-64
2023/09/18 07:14:46;;;;;;;;;;;18.00;99.90;;;;;;5065344;28;19931;-65
2023/09/18 07:17:11;;;;;;;;;;;18.00;99.90;;;;;;5086619;28;20330;-65
2023/09/18 07:19:37;;;;;;;;;;;18.00;99.90;;;;;;5086131;28;19938;-65
2023/09/18 07:22:03;;;;;;;;;;;18.30;99.90;;;;;;5085347;28;19924;-65
2023/09/18 07:24:28;;;;;;;;;;;18.50;99.90;;;;;;5085041;28;19927;-65
2023/09/18 07:26:54;;;;;;;;;;;18.40;99.90;;;;;;5084596;28;19928;-65
2023/09/18 07:29:20;;;;;;;;;;;18.10;99.90;;;;;;5085289;28;20069;-65
2023/09/18 07:31:46;;;;;;;;;;;18.10;99.90;;;;;;5087102;28;20292;-67
2023/09/18 07:34:13;;;;;;;;;;;18.80;99.90;;;;;;5086918;28;19920;-66
2023/09/18 07:36:39;;;;;;;;;;;17.90;99.90;;;;;;5069478;28;19920;-66
2023/09/18 07:39:05;;;;;;;;;;;17.80;99.90;;;;;;5087335;28;20111;-67
2023/09/18 07:41:31;;;;;;;;;;;17.70;99.90;;;;;;5086706;28;19931;-66
2023/09/18 07:43:58;;;;;;;;;;;18.60;99.90;;;;;;5068350;28;19926;-66
2023/09/18 07:46:24;;;;;;;;;;;17.50;99.90;;;;;;5085945;28;19939;-65
2023/09/18 07:48:49;;;;;;;;;;;17.70;99.90;;;;;;5086420;28;19920;-65
2023/09/18 07:51:16;;;;;;;;;;;18.30;99.90;;;;;;5086146;28;19920;-66
2023/09/18 07:53:41;;;;;;;;;;;18.60;99.90;;;;;;5086025;28;20042;-65
2023/09/18 07:56:07;;;;;;;;;;;17.60;99.90;;;;;;5086103;28;20506;-64
2023/09/18 07:58:33;;;;;;;;;;;17.50;99.90;;;;;;5086295;28;19920;-65
2023/09/18 08:00:59;;;;;;;;;;;18.10;99.90;;;;;;5069852;28;19920;-64
2023/09/18 08:03:28;;;;;;;;;;;17.60;99.90;;;;;;5087011;28;20305;-63
2023/09/18 08:05:54;;;;;;;;;;;18.00;99.90;;;;;;5069812;28;19936;-63
2023/09/18 08:08:20;;;;;;;;;;;18.40;99.90;;;;;;5086688;28;19931;-63
2023/09/18 08:10:46;;;;;;;;;;;18.00;99.90;;;;;;5070241;28;19920;-63
2023/09/18 08:13:12;;;;;;;;;;;18.20;99.90;;;;;;5086735;28;20462;-64
2023/09/18 08:15:37;;;;;;;;;;;17.90;99.90;;;;;;5086922;28;19935;-64
2023/09/18 08:18:03;;;;;;;;;;;17.40;99.90;;;;;;5070275;28;20150;-63
2023/09/18 08:20:29;;;;;;;;;;;18.60;99.90;;;;;;5086544;28;20020;-63
2023/09/18 08:22:54;;;;;;;;;;;17.50;99.90;;;;;;5087054;28;19923;-64
2023/09/18 08:25:20;;;;;;;;;;;17.80;99.90;;;;;;5086776;28;19975;-64
2023/09/18 08:27:47;;;;;;;;;;;17.60;99.90;;;;;;5085234;28;20390;-64
2023/09/18 08:30:13;;;;;;;;;;;17.50;99.90;;;;;;5087259;28;20000;-63
2023/09/18 08:32:39;;;;;;;;;;;18.60;99.90;;;;;;5086915;28;20307;-63
2023/09/18 08:35:05;;;;;;;;;;;18.60;99.90;;;;;;5052282;28;20043;-63
2023/09/18 08:37:31;;;;;;;;;;;18.80;99.90;;;;;;5085593;28;20477;-63
2023/09/18 08:39:56;;;;;;;;;;;17.60;99.90;;;;;;5068619;28;20007;-63
2023/09/18 08:42:23;;;;;;;;;;;19.00;99.90;;;;;;5085221;28;20448;-63
2023/09/18 08:44:50;;;;;;;;;;;19.00;99.90;;;;;;5069678;28;19924;-63
2023/09/18 08:47:16;;;;;;;;;;;18.50;99.90;;;;;;5069508;28;19924;-64
2023/09/18 08:49:42;;;;;;;;;;;17.70;99.90;;;;;;5087647;28;19997;-64
2023/09/18 08:52:08;;;;;;;;;;;18.70;99.90;;;;;;5089711;28;20346;-64
2023/09/18 08:54:34;;;;;;;;;;;19.00;99.90;;;;;;5087149;28;20010;-62
2023/09/18 08:57:00;;;;;;;;;;;17.70;99.90;;;;;;5087396;28;19950;-62
2023/09/18 08:59:27;;;;;;;;;;;19.00;99.90;;;;;;5069650;28;19963;-64
2023/09/18 09:01:53;;;;;;;;;;;17.80;99.90;;;;;;5086618;28;19921;-64
2023/09/18 09:04:18;;;;;;;;;;;18.10;99.90;;;;;;5068992;28;19920;-64
2023/09/18 09:06:44;;;;;;;;;;;18.40;99.90;;;;;;5068283;28;19971;-64
2023/09/18 09:09:12;;;;;;;;;;;18.70;99.90;;;;;;5085187;28;19927;-64
2023/09/18 09:11:38;;;;;;;;;;;17.60;99.90;;;;;;5084933;28;19951;-63
2023/09/18 09:14:27;;;;;;;;;;;17.60;99.90;;;;;;5085302;28;19920;-63
2023/09/18 09:16:54;;;;;;;;;;;19.00;99.90;;;;;;5085790;28;19951;-63
2023/09/18 09:19:28;;;;;;;;;;;18.70;99.90;;;;;;5085222;28;19963;-63
2023/09/18 09:21:53;;;;;;;;;;;18.70;99.90;;;;;;5085678;28;20016;-63
2023/09/18 09:24:35;;;;;;;;;;;18.20;99.90;;;;;;5086230;28;20381;-63
2023/09/18 09:27:03;;;;;;;;;;;18.10;99.90;;;;;;5085173;28;19935;-63
2023/09/18 09:29:29;;;;;;;;;;;18.80;99.90;;;;;;5085933;28;20433;-63
2023/09/18 09:31:56;;;;;;;;;;;18.40;99.90;;;;;;5084936;28;20254;-63
2023/09/18 09:34:26;;;;;;;;;;;19.00;99.90;;;;;;5085920;28;19966;-63
2023/09/18 09:36:53;;;;;;;;;;;18.80;99.90;;;;;;5085610;28;20397;-62
2023/09/18 09:39:21;;;;;;;;;;;18.90;99.90;;;;;;5069147;28;19971;-62
2023/09/18 09:41:48;;;;;;;;;;;18.50;99.90;;;;;;5085808;28;20392;-63
2023/09/18 09:44:13;;;;;;;;;;;19.30;99.90;;;;;;5085645;28;19970;-64
2023/09/18 09:46:49;;;;;;;;;;;18.80;99.90;;;;;;5085069;28;19979;-63
2023/09/18 09:49:15;;;;;;;;;;;19.40;99.90;;;;;;5087041;28;20534;-65
2023/09/18 09:51:41;;;;;;;;;;;18.50;99.90;;;;;;5068645;28;19927;-63
2023/09/18 09:54:07;;;;;;;;;;;19.00;99.90;;;;;;5085402;28;19920;-63
2023/09/18 09:56:44;;;;;;;;;;;19.00;99.90;;;;;;5067744;28;19924;-63
2023/09/18 09:59:11;;;;;;;;;;;18.90;99.90;;;;;;5085536;28;19920;-63
2023/09/18 10:01:37;;;;;;;;;;;19.60;99.90;;;;;;5085936;28;20189;-64
2023/09/18 10:04:04;;;;;;;;;;;18.60;99.90;;;;;;5084085;28;19928;-63
2023/09/18 10:06:32;;;;;;;;;;;19.20;99.90;;;;;;5067141;28;19927;-63
2023/09/18 10:08:58;;;;;;;;;;;18.70;99.90;;;;;;5083610;28;20031;-63
2023/09/18 10:11:25;;;;;;;;;;;19.70;99.90;;;;;;5085005;28;19924;-63
2023/09/18 10:13:58;;;;;;;;;;;19.70;99.90;;;;;;5084372;28;20827;-63
2023/09/18 10:16:27;;;;;;;;;;;18.90;99.90;;;;;;5082779;28;20443;-63
2023/09/18 10:18:59;;;;;;;;;;;18.80;99.90;;;;;;5084606;28;19943;-63
2023/09/18 10:21:31;;;;;;;;;;;20.00;99.90;;;;;;5066839;28;20385;-63
2023/09/18 10:24:04;;;;;;;;;;;18.70;99.90;;;;;;5081695;28;20231;-62
2023/09/18 10:26:33;;;;;;;;;;;20.30;99.90;;;;;;5078972;28;19932;-62
2023/09/18 10:28:59;;;;;;;;;;;20.30;99.90;;;;;;5079680;28;20091;-62
2023/09/18 10:31:28;;;;;;;;;;;20.20;99.90;;;;;;5062829;28;19920;-63
2023/09/18 10:33:56;;;;;;;;;;;20.00;99.90;;;;;;5080907;28;20181;-62
2023/09/18 10:36:22;;;;;;;;;;;19.00;99.90;;;;;;5081766;28;19924;-62
2023/09/18 10:38:51;;;;;;;;;;;20.20;99.90;;;;;;5062805;28;20418;-62
2023/09/18 10:41:19;;;;;;;;;;;20.50;99.90;;;;;;5079145;28;20000;-62
2023/09/18 10:43:46;;;;;;;;;;;19.40;99.90;;;;;;5078832;28;19924;-63
2023/09/18 10:46:13;;;;;;;;;;;19.40;99.90;;;;;;5079289;28;20482;-62
2023/09/18 10:48:40;;;;;;;;;;;19.80;99.90;;;;;;5062445;28;20405;-62
2023/09/18 10:51:06;;;;;;;;;;;19.60;99.90;;;;;;5062394;28;19932;-62
2023/09/18 10:53:32;;;;;;;;;;;20.60;99.90;;;;;;5079083;28;19920;-63
2023/09/18 10:55:58;;;;;;;;;;;20.70;99.90;;;;;;5062404;28;19920;-63
2023/09/18 10:58:25;;;;;;;;;;;21.00;99.90;;;;;;5078666;28;20302;-62
2023/09/18 11:00:51;;;;;;;;;;;20.90;99.90;;;;;;5079461;28;20318;-63
2023/09/18 11:03:17;;;;;;;;;;;21.50;99.90;;;;;;5079003;28;19924;-62
2023/09/18 11:05:46;;;;;;;;;;;21.40;99.90;;;;;;5079545;28;19974;-62
2023/09/18 11:08:33;;;;;;;;;;;20.80;99.90;;;;;;5078726;28;19931;-62
2023/09/18 11:11:04;;;;;;;;;;;21.30;99.90;;;;;;5078865;28;20122;-65
2023/09/18 11:13:38;;;;;;;;;;;21.00;99.90;;;;;;5062464;28;19967;-63
2023/09/18 11:16:13;;;;;;;;;;;21.00;99.90;;;;;;5078548;28;20682;-62
2023/09/18 11:18:38;;;;;;;;;;;20.90;99.90;;;;;;5080305;28;20459;-62
2023/09/18 11:21:11;;;;;;;;;;;21.00;99.90;;;;;;5079166;28;19971;-62
2023/09/18 11:23:38;;;;;;;;;;;21.20;99.90;;;;;;5079241;28;20084;-62
2023/09/18 11:26:07;;;;;;;;;;;21.10;99.90;;;;;;5079139;28;20307;-62
2023/09/18 11:28:32;;;;;;;;;;;21.10;99.90;;;;;;5078648;28;19968;-62
2023/09/18 11:31:00;;;;;;;;;;;21.50;99.90;;;;;;5078818;28;19928;-62
2023/09/18 11:33:32;;;;;;;;;;;21.70;99.90;;;;;;5079141;28;20045;-62
2023/09/18 11:36:18;;;;;;;;;;;22.30;99.90;;;;;;5079484;28;20374;-62
2023/09/18 11:38:57;;;;;;;;;;;22.70;99.90;;;;;;5071121;28;20001;-62
2023/09/18 11:41:27;;;;;;;;;;;23.10;99.90;;;;;;5078716;28;20380;-62
2023/09/18 11:44:23;;;;;;;;;;;23.60;99.90;;;;;;5079403;28;20413;-62
2023/09/18 11:46:53;;;;;;;;;;;24.10;4.00;;;;;;5078450;28;19924;-62
2023/09/18 11:49:21;;;;;;;;;;;24.70;99.90;;;;;;5080198;28;19977;-64
2023/09/18 11:51:47;;;;;;;;;;;24.20;99.90;;;;;;5079455;28;19923;-63
2023/09/18 11:54:14;;;;;;;;;;;23.60;99.90;;;;;;5078598;28;20472;-64
2023/09/18 11:56:40;;;;;;;;;;;23.70;99.90;;;;;;5079844;28;19920;-64
2023/09/18 11:59:06;;;;;;;;;;;23.40;99.90;;;;;;5079906;28;20451;-63
2023/09/18 12:01:39;;;;;;;;;;;23.20;99.90;;;;;;5081696;28;19924;-63
2023/09/18 12:04:08;;;;;;;;;;;23.80;99.90;;;;;;5083698;28;20150;-64
2023/09/18 12:06:34;;;;;;;;;;;24.30;99.90;;;;;;5081729;28;19955;-64
2023/09/18 12:09:00;;;;;;;;;;;24.60;99.90;;;;;;5082124;28;19989;-64
2023/09/18 12:11:26;;;;;;;;;;;24.60;99.90;;;;;;5081751;28;20522;-64
2023/09/18 12:13:52;;;;;;;;;;;23.90;99.90;;;;;;5083831;28;19963;-64
2023/09/18 12:16:18;;;;;;;;;;;23.30;99.90;;;;;;5065252;28;20366;-64
2023/09/18 12:18:48;;;;;;;;;;;23.10;99.90;;;;;;5082516;28;20021;-63
2023/09/18 12:21:15;;;;;;;;;;;22.90;99.90;;;;;;5081846;28;19924;-63
2023/09/18 12:23:42;;;;;;;;;;;23.00;99.90;;;;;;5081957;28;19936;-63
2023/09/18 12:26:08;;;;;;;;;;;23.00;99.90;;;;;;5083038;28;19928;-64
2023/09/18 12:28:37;;;;;;;;;;;23.30;99.90;;;;;;5081890;28;20309;-63
2023/09/18 12:31:06;;;;;;;;;;;24.00;99.90;;;;;;5082128;28;20027;-62
2023/09/18 12:33:35;;;;;;;;;;;24.50;99.90;;;;;;5081597;28;19930;-63
2023/09/18 12:36:02;;;;;;;;;;;24.40;99.90;;;;;;5080797;28;19924;-62
2023/09/18 12:38:28;;;;;;;;;;;24.20;99.90;;;;;;5064284;28;19931;-63
2023/09/18 12:40:54;;;;;;;;;;;24.40;99.90;;;;;;5081097;28;19951;-63
2023/09/18 12:43:24;;;;;;;;;;;25.00;99.90;;;;;;5082971;28;20343;-62
2023/09/18 12:45:50;;;;;;;;;;;24.90;99.90;;;;;;5081140;28;19927;-62
2023/09/18 12:48:16;;;;;;;;;;;24.60;99.90;;;;;;5081261;28;20305;-63
2023/09/18 12:50:42;;;;;;;;;;;24.70;99.90;;;;;;5080778;28;20228;-64
2023/09/18 12:53:07;;;;;;;;;;;24.70;99.90;;;;;;5081328;28;19924;-63
2023/09/18 12:55:33;;;;;;;;;;;25.20;99.90;;;;;;5065122;28;19920;-64
2023/09/18 12:57:59;;;;;;;;;;;25.40;99.90;;;;;;5081886;28;19920;-64
2023/09/18 13:00:26;;;;;;;;;;;25.30;99.90;;;;;;5082242;28;19943;-64
2023/09/18 13:02:54;;;;;;;;;;;24.90;99.90;;;;;;5081462;28;19920;-64
2023/09/18 13:05:20;;;;;;;;;;;24.00;99.90;;;;;;5081563;28;19947;-63
2023/09/18 13:07:47;;;;;;;;;;;23.70;99.90;;;;;;5081404;28;20212;-63
2023/09/18 13:10:14;;;;;;;;;;;24.40;99.90;;;;;;5081450;28;20154;-64
2023/09/18 13:12:47;;;;;;;;;;;24.70;99.90;;;;;;5081226;28;19924;-64
2023/09/18 13:15:13;;;;;;;;;;;24.70;99.90;;;;;;5081841;28;19924;-64
2023/09/18 13:17:41;;;;;;;;;;;24.70;99.90;;;;;;5081227;28;19974;-64
2023/09/18 13:20:09;;;;;;;;;;;25.10;99.90;;;;;;5082911;28;20261;-64
2023/09/18 13:22:35;;;;;;;;;;;25.00;97.20;;;;;;5081304;28;19920;-65
2023/09/18 13:25:00;;;;;;;;;;;25.40;93.20;;;;;;5082049;28;19931;-65
2023/09/18 13:27:26;;;;;;;;;;;25.50;91.00;;;;;;5081276;28;19928;-65
2023/09/18 13:29:53;;;;;;;;;;;25.60;68.40;;;;;;5081468;28;19924;-65
2023/09/18 13:32:18;;;;;;;;;;;25.80;84.50;;;;;;5081231;28;20440;-65
2023/09/18 13:34:45;;;;;;;;;;;26.10;45.80;;;;;;5080752;28;19973;-65
2023/09/18 13:37:10;;;;;;;;;;;25.80;62.10;;;;;;5063879;28;20167;-66
2023/09/18 13:39:36;;;;;;;;;;;25.60;79.00;;;;;;5081704;28;19924;-65
2023/09/18 13:42:02;;;;;;;;;;;25.80;23.40;;;;;;5082622;28;19945;-66
2023/09/18 13:44:28;;;;;;;;;;;26.10;48.30;;;;;;5082197;28;19919;-65
2023/09/18 13:46:54;;;;;;;;;;;26.40;83.10;;;;;;5080590;28;20012;-66
2023/09/18 13:49:19;;;;;;;;;;;26.80;26.10;;;;;;5080758;28;19928;-66
2023/09/18 13:51:45;;;;;;;;;;;26.90;28.60;;;;;;5080870;28;20218;-66
2023/09/18 13:54:10;;;;;;;;;;;26.30;10.20;;;;;;5064208;28;20414;-65
2023/09/18 13:56:36;;;;;;;;;;;25.90;23.20;;;;;;5082362;28;19920;-65
2023/09/18 13:59:01;;;;;;;;;;;26.10;30.10;;;;;;5080611;28;19927;-65
2023/09/18 14:01:28;;;;;;;;;;;26.60;25.00;;;;;;5080571;28;19920;-64
2023/09/18 14:03:54;;;;;;;;;;;26.90;1.00;;;;;;5080125;28;19923;-65
2023/09/18 14:06:19;;;;;;;;;;;26.30;1.00;;;;;;5081268;28;19950;-65
2023/09/18 14:08:45;;;;;;;;;;;26.00;1.00;;;;;;5063168;28;19972;-65
2023/09/18 14:11:11;;;;;;;;;;;26.10;1.00;;;;;;5080407;28;20013;-65
2023/09/18 14:13:36;;;;;;;;;;;26.20;1.00;;;;;;5080558;28;19920;-65